sensor_id;sensor_type;location;lat;lon;timestamp;temperature;humidity
24011;DHT22;12217;50.792;4.372;2022-12-07T00:01:23;6.70;99.90
24011;DHT22;12217;50.792;4.372;2022-12-07T00:03:51;6.70;99.90
24011;DHT22;12217;50.792;4.372;2022-12-07T00:06:19;6.70;99.90
24011;DHT22;12217;50.792;4.372;2022-12-07T00:08:46;6.60;99.90
24011;DHT22;12217;50.792;4.372;2022-12-07T00:11:14;6.40;99.90
24011;DHT22;12217;50.792;4.372;2022-12-07T00:13:40;6.40;99.90
24011;DHT22;12217;50.792;4.372;2022-12-07T00:16:09;6.40;99.90
24011;DHT22;12217;50.792;4.372;2022-12-07T00:18:35;6.40;99.90
24011;DHT22;12217;50.792;4.372;2022-12-07T00:21:04;6.60;99.90
24011;DHT22;12217;50.792;4.372;2022-12-07T00:23:30;6.50;99.90
24011;DHT22;12217;50.792;4.372;2022-12-07T00:26:02;6.40;99.90
24011;DHT22;12217;50.792;4.372;2022-12-07T00:28:27;6.40;99.90
24011;DHT22;12217;50.792;4.372;2022-12-07T00:33:28;6.30;99.90
24011;DHT22;12217;50.792;4.372;2022-12-07T00:35:58;6.20;99.90
24011;DHT22;12217;50.792;4.372;2022-12-07T00:38:23;6.30;99.90
24011;DHT22;12217;50.792;4.372;2022-12-07T00:40:57;6.20;99.90
24011;DHT22;12217;50.792;4.372;2022-12-07T00:43:23;6.30;99.90
24011;DHT22;12217;50.792;4.372;2022-12-07T00:45:49;6.40;99.90
24011;DHT22;12217;50.792;4.372;2022-12-07T00:48:14;6.50;99.90
24011;DHT22;12217;50.792;4.372;2022-12-07T00:50:40;6.50;99.90
24011;DHT22;12217;50.792;4.372;2022-12-07T00:53:06;6.40;99.90
24011;DHT22;12217;50.792;4.372;2022-12-07T00:55:37;6.40;99.90
24011;DHT22;12217;50.792;4.372;2022-12-07T00:58:03;6.40;99.90
24011;DHT22;12217;50.792;4.372;2022-12-07T01:00:29;6.50;99.90
24011;DHT22;12217;50.792;4.372;2022-12-07T01:02:55;6.60;99.90
24011;DHT22;12217;50.792;4.372;2022-12-07T01:05:21;6.60;99.90
24011;DHT22;12217;50.792;4.372;2022-12-07T01:07:46;6.40;99.90
24011;DHT22;12217;50.792;4.372;2022-12-07T01:10:15;6.30;99.90
24011;DHT22;12217;50.792;4.372;2022-12-07T01:12:41;6.50;99.90
24011;DHT22;12217;50.792;4.372;2022-12-07T01:15:07;6.40;99.90
24011;DHT22;12217;50.792;4.372;2022-12-07T01:17:33;6.50;99.90
24011;DHT22;12217;50.792;4.372;2022-12-07T01:19:59;6.50;99.90
24011;DHT22;12217;50.792;4.372;2022-12-07T01:22:25;6.40;99.90
24011;DHT22;12217;50.792;4.372;2022-12-07T01:24:51;6.40;99.90
24011;DHT22;12217;50.792;4.372;2022-12-07T01:27:16;6.40;99.90
24011;DHT22;12217;50.792;4.372;2022-12-07T01:29:42;6.50;99.90
24011;DHT22;12217;50.792;4.372;2022-12-07T01:32:08;6.50;99.90
24011;DHT22;12217;50.792;4.372;2022-12-07T01:34:33;6.40;99.90
24011;DHT22;12217;50.792;4.372;2022-12-07T01:36:59;6.60;99.90
24011;DHT22;12217;50.792;4.372;2022-12-07T01:39:25;6.60;99.90
24011;DHT22;12217;50.792;4.372;2022-12-07T01:41:50;6.50;99.90
24011;DHT22;12217;50.792;4.372;2022-12-07T01:44:27;6.50;99.90
24011;DHT22;12217;50.792;4.372;2022-12-07T01:47:03;6.60;99.90
24011;DHT22;12217;50.792;4.372;2022-12-07T01:52:17;6.60;99.90
24011;DHT22;12217;50.792;4.372;2022-12-07T01:54:47;6.60;99.90
24011;DHT22;12217;50.792;4.372;2022-12-07T01:57:16;6.60;99.90
24011;DHT22;12217;50.792;4.372;2022-12-07T01:59:43;6.40;99.90
24011;DHT22;12217;50.792;4.372;2022-12-07T02:02:48;6.40;99.90
24011;DHT22;12217;50.792;4.372;2022-12-07T02:05:17;6.50;99.90
24011;DHT22;12217;50.792;4.372;2022-12-07T02:07:43;6.40;99.90
24011;DHT22;12217;50.792;4.372;2022-12-07T02:10:18;6.50;99.90
24011;DHT22;12217;50.792;4.372;2022-12-07T02:12:54;6.50;99.90
24011;DHT22;12217;50.792;4.372;2022-12-07T02:15:22;6.40;99.90
24011;DHT22;12217;50.792;4.372;2022-12-07T02:18:01;6.60;99.90
24011;DHT22;12217;50.792;4.372;2022-12-07T02:20:53;6.60;99.90
24011;DHT22;12217;50.792;4.372;2022-12-07T02:29:18;6.60;99.90
24011;DHT22;12217;50.792;4.372;2022-12-07T02:38:10;6.40;99.90
24011;DHT22;12217;50.792;4.372;2022-12-07T02:40:41;6.00;99.90
24011;DHT22;12217;50.792;4.372;2022-12-07T02:43:22;5.90;99.90
24011;DHT22;12217;50.792;4.372;2022-12-07T02:45:51;6.10;99.90
24011;DHT22;12217;50.792;4.372;2022-12-07T02:48:18;6.20;99.90
24011;DHT22;12217;50.792;4.372;2022-12-07T02:50:49;6.20;99.90
24011;DHT22;12217;50.792;4.372;2022-12-07T02:53:39;6.30;99.90
24011;DHT22;12217;50.792;4.372;2022-12-07T02:56:36;6.30;99.90
24011;DHT22;12217;50.792;4.372;2022-12-07T02:59:30;6.20;99.90
24011;DHT22;12217;50.792;4.372;2022-12-07T03:08:01;6.30;99.90
24011;DHT22;12217;50.792;4.372;2022-12-07T03:15:47;6.40;99.90
24011;DHT22;12217;50.792;4.372;2022-12-07T03:18:19;6.40;99.90
24011;DHT22;12217;50.792;4.372;2022-12-07T03:20:46;6.50;99.90
24011;DHT22;12217;50.792;4.372;2022-12-07T03:23:15;6.50;99.90
24011;DHT22;12217;50.792;4.372;2022-12-07T03:25:47;6.50;99.90
24011;DHT22;12217;50.792;4.372;2022-12-07T03:28:17;6.40;99.90
24011;DHT22;12217;50.792;4.372;2022-12-07T03:30:51;6.40;99.90
24011;DHT22;12217;50.792;4.372;2022-12-07T03:34:11;6.40;99.90
24011;DHT22;12217;50.792;4.372;2022-12-07T03:36:22;6.40;99.90
24011;DHT22;12217;50.792;4.372;2022-12-07T03:38:55;6.40;99.90
24011;DHT22;12217;50.792;4.372;2022-12-07T03:41:26;6.40;99.90
24011;DHT22;12217;50.792;4.372;2022-12-07T03:43:54;6.50;99.90
24011;DHT22;12217;50.792;4.372;2022-12-07T03:49:37;6.60;99.90
24011;DHT22;12217;50.792;4.372;2022-12-07T03:52:54;6.70;99.90
24011;DHT22;12217;50.792;4.372;2022-12-07T03:55:14;6.60;99.90
24011;DHT22;12217;50.792;4.372;2022-12-07T03:57:42;6.50;99.90
24011;DHT22;12217;50.792;4.372;2022-12-07T04:00:10;6.30;99.90
24011;DHT22;12217;50.792;4.372;2022-12-07T04:02:37;6.20;99.90
24011;DHT22;12217;50.792;4.372;2022-12-07T04:05:03;6.30;99.90
24011;DHT22;12217;50.792;4.372;2022-12-07T04:07:29;6.30;99.90
24011;DHT22;12217;50.792;4.372;2022-12-07T04:09:55;6.40;99.90
24011;DHT22;12217;50.792;4.372;2022-12-07T04:12:21;6.40;99.90
24011;DHT22;12217;50.792;4.372;2022-12-07T04:14:47;6.30;99.90
24011;DHT22;12217;50.792;4.372;2022-12-07T04:17:13;6.30;99.90
24011;DHT22;12217;50.792;4.372;2022-12-07T04:19:38;6.30;99.90
24011;DHT22;12217;50.792;4.372;2022-12-07T04:22:05;6.30;99.90
24011;DHT22;12217;50.792;4.372;2022-12-07T04:24:31;6.30;99.90
24011;DHT22;12217;50.792;4.372;2022-12-07T04:26:57;6.20;99.90
24011;DHT22;12217;50.792;4.372;2022-12-07T04:29:23;6.20;99.90
24011;DHT22;12217;50.792;4.372;2022-12-07T04:31:49;6.30;99.90
24011;DHT22;12217;50.792;4.372;2022-12-07T04:34:16;6.30;99.90
24011;DHT22;12217;50.792;4.372;2022-12-07T04:36:42;6.30;99.90
24011;DHT22;12217;50.792;4.372;2022-12-07T04:39:18;6.30;99.90
24011;DHT22;12217;50.792;4.372;2022-12-07T04:41:44;6.20;99.90
24011;DHT22;12217;50.792;4.372;2022-12-07T04:44:09;6.20;99.90
24011;DHT22;12217;50.792;4.372;2022-12-07T04:46:36;6.10;99.90
24011;DHT22;12217;50.792;4.372;2022-12-07T04:49:01;6.10;99.90
24011;DHT22;12217;50.792;4.372;2022-12-07T04:51:28;6.10;99.90
24011;DHT22;12217;50.792;4.372;2022-12-07T04:53:55;6.10;99.90
24011;DHT22;12217;50.792;4.372;2022-12-07T04:56:21;6.10;99.90
24011;DHT22;12217;50.792;4.372;2022-12-07T04:58:48;6.10;99.90
24011;DHT22;12217;50.792;4.372;2022-12-07T05:01:15;6.30;99.90
24011;DHT22;12217;50.792;4.372;2022-12-07T05:03:41;6.30;99.90
24011;DHT22;12217;50.792;4.372;2022-12-07T05:06:08;6.40;99.90
24011;DHT22;12217;50.792;4.372;2022-12-07T05:08:34;6.30;99.90
24011;DHT22;12217;50.792;4.372;2022-12-07T05:11:00;6.20;99.90
24011;DHT22;12217;50.792;4.372;2022-12-07T05:13:26;6.20;99.90
24011;DHT22;12217;50.792;4.372;2022-12-07T05:15:52;6.00;99.90
24011;DHT22;12217;50.792;4.372;2022-12-07T05:18:18;6.10;99.90
24011;DHT22;12217;50.792;4.372;2022-12-07T05:20:44;6.10;99.90
24011;DHT22;12217;50.792;4.372;2022-12-07T05:23:10;6.00;99.90
24011;DHT22;12217;50.792;4.372;2022-12-07T05:25:36;5.90;99.90
24011;DHT22;12217;50.792;4.372;2022-12-07T05:28:02;6.10;99.90
24011;DHT22;12217;50.792;4.372;2022-12-07T05:30:28;6.10;99.90
24011;DHT22;12217;50.792;4.372;2022-12-07T05:32:54;6.20;99.90
24011;DHT22;12217;50.792;4.372;2022-12-07T05:35:20;6.20;99.90
24011;DHT22;12217;50.792;4.372;2022-12-07T05:37:46;6.20;99.90
24011;DHT22;12217;50.792;4.372;2022-12-07T05:40:12;6.20;99.90
24011;DHT22;12217;50.792;4.372;2022-12-07T05:42:40;6.20;99.90
24011;DHT22;12217;50.792;4.372;2022-12-07T05:45:07;6.10;99.90
24011;DHT22;12217;50.792;4.372;2022-12-07T05:47:33;6.10;99.90
24011;DHT22;12217;50.792;4.372;2022-12-07T05:49:58;6.10;99.90
24011;DHT22;12217;50.792;4.372;2022-12-07T05:52:24;6.20;99.90
24011;DHT22;12217;50.792;4.372;2022-12-07T05:54:50;6.30;99.90
24011;DHT22;12217;50.792;4.372;2022-12-07T05:57:16;6.30;99.90
24011;DHT22;12217;50.792;4.372;2022-12-07T05:59:41;6.20;99.90
24011;DHT22;12217;50.792;4.372;2022-12-07T06:02:09;6.10;99.90
24011;DHT22;12217;50.792;4.372;2022-12-07T06:04:39;6.10;99.90
24011;DHT22;12217;50.792;4.372;2022-12-07T06:07:05;6.10;99.90
24011;DHT22;12217;50.792;4.372;2022-12-07T06:09:31;6.10;99.90
24011;DHT22;12217;50.792;4.372;2022-12-07T06:11:58;6.10;99.90
24011;DHT22;12217;50.792;4.372;2022-12-07T06:14:42;6.10;99.90
24011;DHT22;12217;50.792;4.372;2022-12-07T06:17:09;6.00;99.90
24011;DHT22;12217;50.792;4.372;2022-12-07T06:19:34;6.10;99.90
24011;DHT22;12217;50.792;4.372;2022-12-07T06:22:01;6.10;99.90
24011;DHT22;12217;50.792;4.372;2022-12-07T06:24:26;6.30;99.90
24011;DHT22;12217;50.792;4.372;2022-12-07T06:26:52;6.30;99.90
24011;DHT22;12217;50.792;4.372;2022-12-07T06:29:18;6.20;99.90
24011;DHT22;12217;50.792;4.372;2022-12-07T06:31:45;6.10;99.90
24011;DHT22;12217;50.792;4.372;2022-12-07T06:34:13;6.20;99.90
24011;DHT22;12217;50.792;4.372;2022-12-07T06:36:39;6.30;99.90
24011;DHT22;12217;50.792;4.372;2022-12-07T06:39:06;6.30;99.90
24011;DHT22;12217;50.792;4.372;2022-12-07T06:41:32;6.20;99.90
24011;DHT22;12217;50.792;4.372;2022-12-07T06:43:57;6.30;99.90
24011;DHT22;12217;50.792;4.372;2022-12-07T06:46:23;6.40;99.90
24011;DHT22;12217;50.792;4.372;2022-12-07T06:48:49;6.40;99.90
24011;DHT22;12217;50.792;4.372;2022-12-07T06:51:15;6.40;99.90
24011;DHT22;12217;50.792;4.372;2022-12-07T06:53:41;6.30;99.90
24011;DHT22;12217;50.792;4.372;2022-12-07T06:56:07;6.30;99.90
24011;DHT22;12217;50.792;4.372;2022-12-07T06:58:33;6.30;99.90
24011;DHT22;12217;50.792;4.372;2022-12-07T07:00:58;6.30;99.90
24011;DHT22;12217;50.792;4.372;2022-12-07T07:03:24;6.30;99.90
24011;DHT22;12217;50.792;4.372;2022-12-07T07:05:50;6.20;99.90
24011;DHT22;12217;50.792;4.372;2022-12-07T07:08:15;6.10;99.90
24011;DHT22;12217;50.792;4.372;2022-12-07T07:10:41;6.30;99.90
24011;DHT22;12217;50.792;4.372;2022-12-07T07:13:07;6.20;99.90
24011;DHT22;12217;50.792;4.372;2022-12-07T07:15:34;6.10;99.90
24011;DHT22;12217;50.792;4.372;2022-12-07T07:18:00;6.30;99.90
24011;DHT22;12217;50.792;4.372;2022-12-07T07:20:26;6.30;99.90
24011;DHT22;12217;50.792;4.372;2022-12-07T07:22:54;6.40;99.90
24011;DHT22;12217;50.792;4.372;2022-12-07T07:25:21;6.50;99.90
24011;DHT22;12217;50.792;4.372;2022-12-07T07:27:46;6.40;99.90
24011;DHT22;12217;50.792;4.372;2022-12-07T07:30:12;6.40;99.90
24011;DHT22;12217;50.792;4.372;2022-12-07T07:32:38;6.50;99.90
24011;DHT22;12217;50.792;4.372;2022-12-07T07:35:04;6.20;99.90
24011;DHT22;12217;50.792;4.372;2022-12-07T07:37:30;6.30;99.90
24011;DHT22;12217;50.792;4.372;2022-12-07T07:39:55;6.30;99.90
24011;DHT22;12217;50.792;4.372;2022-12-07T07:42:22;6.50;99.90
24011;DHT22;12217;50.792;4.372;2022-12-07T07:44:48;6.30;99.90
24011;DHT22;12217;50.792;4.372;2022-12-07T07:47:14;6.10;99.90
24011;DHT22;12217;50.792;4.372;2022-12-07T07:49:40;6.00;99.90
24011;DHT22;12217;50.792;4.372;2022-12-07T07:52:06;6.30;99.90
24011;DHT22;12217;50.792;4.372;2022-12-07T07:54:32;6.40;99.90
24011;DHT22;12217;50.792;4.372;2022-12-07T07:56:57;6.40;99.90
24011;DHT22;12217;50.792;4.372;2022-12-07T07:59:24;6.50;99.90
24011;DHT22;12217;50.792;4.372;2022-12-07T08:01:50;6.50;99.90
24011;DHT22;12217;50.792;4.372;2022-12-07T08:04:16;6.50;99.90
24011;DHT22;12217;50.792;4.372;2022-12-07T08:06:41;6.50;99.90
24011;DHT22;12217;50.792;4.372;2022-12-07T08:09:08;6.50;99.90
24011;DHT22;12217;50.792;4.372;2022-12-07T08:11:34;6.40;99.90
24011;DHT22;12217;50.792;4.372;2022-12-07T08:14:00;6.30;99.90
24011;DHT22;12217;50.792;4.372;2022-12-07T08:16:25;6.30;99.90
24011;DHT22;12217;50.792;4.372;2022-12-07T08:18:51;6.20;99.90
24011;DHT22;12217;50.792;4.372;2022-12-07T08:21:17;6.20;99.90
24011;DHT22;12217;50.792;4.372;2022-12-07T08:23:43;6.40;99.90
24011;DHT22;12217;50.792;4.372;2022-12-07T08:26:11;6.40;99.90
24011;DHT22;12217;50.792;4.372;2022-12-07T08:28:37;6.20;99.90
24011;DHT22;12217;50.792;4.372;2022-12-07T08:31:11;6.10;99.90
24011;DHT22;12217;50.792;4.372;2022-12-07T08:33:38;6.20;99.90
24011;DHT22;12217;50.792;4.372;2022-12-07T08:36:07;6.30;99.90
24011;DHT22;12217;50.792;4.372;2022-12-07T08:38:34;6.50;99.90
24011;DHT22;12217;50.792;4.372;2022-12-07T08:41:00;6.50;99.90
24011;DHT22;12217;50.792;4.372;2022-12-07T08:43:26;6.50;99.90
24011;DHT22;12217;50.792;4.372;2022-12-07T08:46:34;6.60;99.90
24011;DHT22;12217;50.792;4.372;2022-12-07T08:49:11;6.60;99.90
24011;DHT22;12217;50.792;4.372;2022-12-07T08:51:39;6.60;99.90
24011;DHT22;12217;50.792;4.372;2022-12-07T08:54:09;6.50;99.90
24011;DHT22;12217;50.792;4.372;2022-12-07T08:56:35;6.60;99.90
24011;DHT22;12217;50.792;4.372;2022-12-07T08:59:01;6.80;99.90
24011;DHT22;12217;50.792;4.372;2022-12-07T09:01:28;6.80;99.90
24011;DHT22;12217;50.792;4.372;2022-12-07T09:03:53;6.80;99.90
24011;DHT22;12217;50.792;4.372;2022-12-07T09:06:19;7.00;99.90
24011;DHT22;12217;50.792;4.372;2022-12-07T09:08:48;7.00;99.90
24011;DHT22;12217;50.792;4.372;2022-12-07T09:11:15;6.90;99.90
24011;DHT22;12217;50.792;4.372;2022-12-07T09:13:41;6.80;99.90
24011;DHT22;12217;50.792;4.372;2022-12-07T09:16:07;6.70;99.90
24011;DHT22;12217;50.792;4.372;2022-12-07T09:18:32;6.60;99.90
24011;DHT22;12217;50.792;4.372;2022-12-07T09:20:58;6.60;99.90
24011;DHT22;12217;50.792;4.372;2022-12-07T09:23:24;6.70;99.90
24011;DHT22;12217;50.792;4.372;2022-12-07T09:25:50;6.60;99.90
24011;DHT22;12217;50.792;4.372;2022-12-07T09:28:15;6.60;99.90
24011;DHT22;12217;50.792;4.372;2022-12-07T09:30:48;6.60;99.90
24011;DHT22;12217;50.792;4.372;2022-12-07T09:33:14;6.80;99.90
24011;DHT22;12217;50.792;4.372;2022-12-07T09:35:47;6.90;99.90
24011;DHT22;12217;50.792;4.372;2022-12-07T09:38:13;6.90;99.90
24011;DHT22;12217;50.792;4.372;2022-12-07T09:40:39;7.10;99.90
24011;DHT22;12217;50.792;4.372;2022-12-07T09:43:11;7.20;99.90
24011;DHT22;12217;50.792;4.372;2022-12-07T09:45:38;7.30;99.90
24011;DHT22;12217;50.792;4.372;2022-12-07T09:48:04;7.10;99.90
24011;DHT22;12217;50.792;4.372;2022-12-07T09:50:30;7.00;99.90
24011;DHT22;12217;50.792;4.372;2022-12-07T09:53:20;7.20;99.90
24011;DHT22;12217;50.792;4.372;2022-12-07T09:55:48;7.30;99.90
24011;DHT22;12217;50.792;4.372;2022-12-07T09:58:25;7.60;99.90
24011;DHT22;12217;50.792;4.372;2022-12-07T10:01:28;7.60;99.90
24011;DHT22;12217;50.792;4.372;2022-12-07T10:03:54;7.60;99.90
24011;DHT22;12217;50.792;4.372;2022-12-07T10:06:21;7.60;99.90
24011;DHT22;12217;50.792;4.372;2022-12-07T10:08:47;7.40;99.90
24011;DHT22;12217;50.792;4.372;2022-12-07T10:11:13;7.50;99.90
24011;DHT22;12217;50.792;4.372;2022-12-07T10:13:47;7.60;99.90
24011;DHT22;12217;50.792;4.372;2022-12-07T10:19:26;7.90;99.90
24011;DHT22;12217;50.792;4.372;2022-12-07T10:22:12;8.00;99.90
24011;DHT22;12217;50.792;4.372;2022-12-07T10:24:39;7.80;99.90
24011;DHT22;12217;50.792;4.372;2022-12-07T10:27:26;7.50;99.90
24011;DHT22;12217;50.792;4.372;2022-12-07T10:29:52;7.40;99.90
24011;DHT22;12217;50.792;4.372;2022-12-07T10:34:44;7.40;99.90
24011;DHT22;12217;50.792;4.372;2022-12-07T10:42:21;7.70;99.90
24011;DHT22;12217;50.792;4.372;2022-12-07T10:44:49;7.60;99.90
24011;DHT22;12217;50.792;4.372;2022-12-07T10:47:36;7.70;99.90
24011;DHT22;12217;50.792;4.372;2022-12-07T11:11:42;7.90;99.90
24011;DHT22;12217;50.792;4.372;2022-12-07T11:16:57;8.00;99.90
24011;DHT22;12217;50.792;4.372;2022-12-07T11:19:52;8.10;99.90
24011;DHT22;12217;50.792;4.372;2022-12-07T11:22:41;8.10;99.90
24011;DHT22;12217;50.792;4.372;2022-12-07T11:25:54;8.10;99.90
24011;DHT22;12217;50.792;4.372;2022-12-07T11:28:25;8.00;99.90
24011;DHT22;12217;50.792;4.372;2022-12-07T11:31:09;8.20;99.90
24011;DHT22;12217;50.792;4.372;2022-12-07T11:33:46;8.30;99.90
24011;DHT22;12217;50.792;4.372;2022-12-07T11:38:53;9.30;99.90
24011;DHT22;12217;50.792;4.372;2022-12-07T11:41:27;9.70;99.90
24011;DHT22;12217;50.792;4.372;2022-12-07T11:44:34;9.60;99.90
24011;DHT22;12217;50.792;4.372;2022-12-07T11:52:45;8.80;99.90
24011;DHT22;12217;50.792;4.372;2022-12-07T11:57:54;8.60;99.90
24011;DHT22;12217;50.792;4.372;2022-12-07T12:00:23;8.50;99.90
24011;DHT22;12217;50.792;4.372;2022-12-07T12:02:55;8.30;99.90
24011;DHT22;12217;50.792;4.372;2022-12-07T12:05:25;8.10;99.90
24011;DHT22;12217;50.792;4.372;2022-12-07T12:08:15;8.40;99.90
24011;DHT22;12217;50.792;4.372;2022-12-07T12:11:00;9.40;99.90
24011;DHT22;12217;50.792;4.372;2022-12-07T12:19:26;12.20;99.90
24011;DHT22;12217;50.792;4.372;2022-12-07T12:22:06;13.30;99.90
24011;DHT22;12217;50.792;4.372;2022-12-07T12:24:37;14.10;99.90
24011;DHT22;12217;50.792;4.372;2022-12-07T12:27:15;15.10;99.90
24011;DHT22;12217;50.792;4.372;2022-12-07T12:29:42;14.60;99.90
24011;DHT22;12217;50.792;4.372;2022-12-07T12:35:01;13.90;99.90
24011;DHT22;12217;50.792;4.372;2022-12-07T12:42:58;11.10;99.90
24011;DHT22;12217;50.792;4.372;2022-12-07T12:45:25;11.00;99.90
24011;DHT22;12217;50.792;4.372;2022-12-07T12:47:59;11.00;99.90
24011;DHT22;12217;50.792;4.372;2022-12-07T12:50:37;10.60;99.90
24011;DHT22;12217;50.792;4.372;2022-12-07T12:53:24;10.10;99.90
24011;DHT22;12217;50.792;4.372;2022-12-07T12:58:37;9.60;99.90
24011;DHT22;12217;50.792;4.372;2022-12-07T13:01:33;9.60;99.90
24011;DHT22;12217;50.792;4.372;2022-12-07T13:04:21;9.70;99.90
24011;DHT22;12217;50.792;4.372;2022-12-07T13:06:49;9.60;99.90
24011;DHT22;12217;50.792;4.372;2022-12-07T13:09:30;9.30;99.90
24011;DHT22;12217;50.792;4.372;2022-12-07T13:12:03;9.20;99.90
24011;DHT22;12217;50.792;4.372;2022-12-07T13:17:11;9.10;99.90
24011;DHT22;12217;50.792;4.372;2022-12-07T13:22:48;9.20;99.90
24011;DHT22;12217;50.792;4.372;2022-12-07T13:25:38;9.10;99.90
24011;DHT22;12217;50.792;4.372;2022-12-07T13:28:10;9.20;99.90
24011;DHT22;12217;50.792;4.372;2022-12-07T13:30:42;9.30;99.90
24011;DHT22;12217;50.792;4.372;2022-12-07T13:33:13;9.10;99.90
24011;DHT22;12217;50.792;4.372;2022-12-07T13:35:40;8.80;99.90
24011;DHT22;12217;50.792;4.372;2022-12-07T13:38:25;8.70;99.90
24011;DHT22;12217;50.792;4.372;2022-12-07T13:43:27;8.80;99.90
24011;DHT22;12217;50.792;4.372;2022-12-07T13:45:59;8.90;99.90
24011;DHT22;12217;50.792;4.372;2022-12-07T13:48:41;9.00;99.90
24011;DHT22;12217;50.792;4.372;2022-12-07T13:51:14;9.00;99.90
24011;DHT22;12217;50.792;4.372;2022-12-07T13:53:45;9.00;99.90
24011;DHT22;12217;50.792;4.372;2022-12-07T13:56:13;8.80;99.90
24011;DHT22;12217;50.792;4.372;2022-12-07T13:58:39;8.60;99.90
24011;DHT22;12217;50.792;4.372;2022-12-07T14:01:05;8.50;99.90
24011;DHT22;12217;50.792;4.372;2022-12-07T14:03:33;8.30;99.90
24011;DHT22;12217;50.792;4.372;2022-12-07T14:06:18;8.20;99.90
24011;DHT22;12217;50.792;4.372;2022-12-07T14:08:45;8.30;99.90
24011;DHT22;12217;50.792;4.372;2022-12-07T14:11:18;8.20;99.90
24011;DHT22;12217;50.792;4.372;2022-12-07T14:13:59;8.30;99.90
24011;DHT22;12217;50.792;4.372;2022-12-07T14:16:31;8.20;99.90
24011;DHT22;12217;50.792;4.372;2022-12-07T14:18:59;8.00;99.90
24011;DHT22;12217;50.792;4.372;2022-12-07T14:21:30;8.20;99.90
24011;DHT22;12217;50.792;4.372;2022-12-07T14:26:28;8.30;99.90
24011;DHT22;12217;50.792;4.372;2022-12-07T14:31:45;8.30;99.90
24011;DHT22;12217;50.792;4.372;2022-12-07T14:34:14;8.20;99.90
24011;DHT22;12217;50.792;4.372;2022-12-07T14:36:40;8.40;99.90
24011;DHT22;12217;50.792;4.372;2022-12-07T14:39:05;8.30;99.90
24011;DHT22;12217;50.792;4.372;2022-12-07T14:41:31;8.30;99.90
24011;DHT22;12217;50.792;4.372;2022-12-07T14:44:15;8.40;99.90
24011;DHT22;12217;50.792;4.372;2022-12-07T14:46:40;8.40;99.90
24011;DHT22;12217;50.792;4.372;2022-12-07T14:49:06;8.70;99.90
24011;DHT22;12217;50.792;4.372;2022-12-07T14:51:33;8.70;99.90
24011;DHT22;12217;50.792;4.372;2022-12-07T14:53:59;8.50;99.90
24011;DHT22;12217;50.792;4.372;2022-12-07T14:56:25;8.10;99.90
24011;DHT22;12217;50.792;4.372;2022-12-07T14:58:51;7.70;99.90
24011;DHT22;12217;50.792;4.372;2022-12-07T15:01:17;7.60;99.90
24011;DHT22;12217;50.792;4.372;2022-12-07T15:03:42;7.70;99.90
24011;DHT22;12217;50.792;4.372;2022-12-07T15:06:13;7.50;99.90
24011;DHT22;12217;50.792;4.372;2022-12-07T15:08:39;7.60;99.90
24011;DHT22;12217;50.792;4.372;2022-12-07T15:11:05;7.70;99.90
24011;DHT22;12217;50.792;4.372;2022-12-07T15:13:31;7.80;99.90
24011;DHT22;12217;50.792;4.372;2022-12-07T15:16:19;7.80;99.90
24011;DHT22;12217;50.792;4.372;2022-12-07T15:18:46;7.90;99.90
24011;DHT22;12217;50.792;4.372;2022-12-07T15:21:15;8.00;99.90
24011;DHT22;12217;50.792;4.372;2022-12-07T15:23:41;8.00;99.90
24011;DHT22;12217;50.792;4.372;2022-12-07T15:26:06;8.00;99.90
24011;DHT22;12217;50.792;4.372;2022-12-07T15:28:33;7.90;99.90
24011;DHT22;12217;50.792;4.372;2022-12-07T15:30:59;8.10;99.90
24011;DHT22;12217;50.792;4.372;2022-12-07T15:33:25;8.10;99.90
24011;DHT22;12217;50.792;4.372;2022-12-07T15:35:50;7.90;99.90
24011;DHT22;12217;50.792;4.372;2022-12-07T15:38:16;8.00;99.90
24011;DHT22;12217;50.792;4.372;2022-12-07T15:40:42;7.90;99.90
24011;DHT22;12217;50.792;4.372;2022-12-07T15:43:10;7.90;99.90
24011;DHT22;12217;50.792;4.372;2022-12-07T15:45:56;7.80;99.90
24011;DHT22;12217;50.792;4.372;2022-12-07T15:48:22;7.90;99.90
24011;DHT22;12217;50.792;4.372;2022-12-07T15:50:48;8.00;99.90
24011;DHT22;12217;50.792;4.372;2022-12-07T15:53:13;8.00;99.90
24011;DHT22;12217;50.792;4.372;2022-12-07T15:55:39;7.70;99.90
24011;DHT22;12217;50.792;4.372;2022-12-07T15:58:06;7.50;99.90
24011;DHT22;12217;50.792;4.372;2022-12-07T16:00:32;7.50;99.90
24011;DHT22;12217;50.792;4.372;2022-12-07T16:02:58;7.40;99.90
24011;DHT22;12217;50.792;4.372;2022-12-07T16:05:24;7.50;99.90
24011;DHT22;12217;50.792;4.372;2022-12-07T16:07:49;7.50;99.90
24011;DHT22;12217;50.792;4.372;2022-12-07T16:10:15;7.60;99.90
24011;DHT22;12217;50.792;4.372;2022-12-07T16:12:40;7.60;99.90
24011;DHT22;12217;50.792;4.372;2022-12-07T16:15:07;7.70;99.90
24011;DHT22;12217;50.792;4.372;2022-12-07T16:17:32;7.50;99.90
24011;DHT22;12217;50.792;4.372;2022-12-07T16:19:58;7.50;99.90
24011;DHT22;12217;50.792;4.372;2022-12-07T16:22:24;7.60;99.90
24011;DHT22;12217;50.792;4.372;2022-12-07T16:24:49;7.60;99.90
24011;DHT22;12217;50.792;4.372;2022-12-07T16:27:15;7.50;99.90
24011;DHT22;12217;50.792;4.372;2022-12-07T16:29:41;7.50;99.90
24011;DHT22;12217;50.792;4.372;2022-12-07T16:32:06;7.50;99.90
24011;DHT22;12217;50.792;4.372;2022-12-07T16:34:32;7.60;99.90
24011;DHT22;12217;50.792;4.372;2022-12-07T16:36:58;7.50;99.90
24011;DHT22;12217;50.792;4.372;2022-12-07T16:39:23;7.40;99.90
24011;DHT22;12217;50.792;4.372;2022-12-07T16:41:50;7.20;99.90
24011;DHT22;12217;50.792;4.372;2022-12-07T16:44:16;7.20;99.90
24011;DHT22;12217;50.792;4.372;2022-12-07T16:46:42;7.30;99.90
24011;DHT22;12217;50.792;4.372;2022-12-07T16:49:14;7.40;99.90
24011;DHT22;12217;50.792;4.372;2022-12-07T16:51:41;7.20;99.90
24011;DHT22;12217;50.792;4.372;2022-12-07T16:54:11;7.20;99.90
24011;DHT22;12217;50.792;4.372;2022-12-07T16:56:37;7.20;99.90
24011;DHT22;12217;50.792;4.372;2022-12-07T16:59:03;7.30;99.90
24011;DHT22;12217;50.792;4.372;2022-12-07T17:01:29;7.30;99.90
24011;DHT22;12217;50.792;4.372;2022-12-07T17:03:57;7.30;99.90
24011;DHT22;12217;50.792;4.372;2022-12-07T17:06:25;7.30;99.90
24011;DHT22;12217;50.792;4.372;2022-12-07T17:08:51;7.30;99.90
24011;DHT22;12217;50.792;4.372;2022-12-07T17:11:20;7.30;99.90
24011;DHT22;12217;50.792;4.372;2022-12-07T17:13:46;7.30;99.90
24011;DHT22;12217;50.792;4.372;2022-12-07T17:16:30;7.30;99.90
24011;DHT22;12217;50.792;4.372;2022-12-07T17:18:56;7.20;99.90
24011;DHT22;12217;50.792;4.372;2022-12-07T17:21:22;7.10;99.90
24011;DHT22;12217;50.792;4.372;2022-12-07T17:23:49;7.10;99.90
24011;DHT22;12217;50.792;4.372;2022-12-07T17:26:22;7.10;99.90
24011;DHT22;12217;50.792;4.372;2022-12-07T17:28:49;7.30;99.90
24011;DHT22;12217;50.792;4.372;2022-12-07T17:31:16;7.50;99.90
24011;DHT22;12217;50.792;4.372;2022-12-07T17:33:42;7.40;99.90
24011;DHT22;12217;50.792;4.372;2022-12-07T17:36:14;7.50;99.90
24011;DHT22;12217;50.792;4.372;2022-12-07T17:38:40;7.40;99.90
24011;DHT22;12217;50.792;4.372;2022-12-07T17:41:14;7.40;99.90
24011;DHT22;12217;50.792;4.372;2022-12-07T17:44:04;7.10;99.90
24011;DHT22;12217;50.792;4.372;2022-12-07T17:46:30;7.00;99.90
24011;DHT22;12217;50.792;4.372;2022-12-07T17:48:56;7.10;99.90